sensor_id;sensor_type;location;lat;lon;timestamp;temperature;humidity
14723;DHT22;7452;55.594;12.986;2023-04-28T00:02:07;6.20;99.90
14723;DHT22;7452;55.594;12.986;2023-04-28T00:04:34;6.20;99.90
14723;DHT22;7452;55.594;12.986;2023-04-28T00:07:01;6.20;99.90
14723;DHT22;7452;55.594;12.986;2023-04-28T00:09:28;6.20;99.90
14723;DHT22;7452;55.594;12.986;2023-04-28T00:11:55;6.10;99.90
14723;DHT22;7452;55.594;12.986;2023-04-28T00:14:23;6.10;99.90
14723;DHT22;7452;55.594;12.986;2023-04-28T00:16:50;5.90;99.90
14723;DHT22;7452;55.594;12.986;2023-04-28T00:19:17;6.00;99.90
14723;DHT22;7452;55.594;12.986;2023-04-28T00:21:43;6.00;99.90
14723;DHT22;7452;55.594;12.986;2023-04-28T00:24:10;6.00;99.90
14723;DHT22;7452;55.594;12.986;2023-04-28T00:26:37;5.90;99.90
14723;DHT22;7452;55.594;12.986;2023-04-28T00:29:04;5.90;99.90
14723;DHT22;7452;55.594;12.986;2023-04-28T00:31:32;5.90;99.90
14723;DHT22;7452;55.594;12.986;2023-04-28T00:33:59;5.90;99.90
14723;DHT22;7452;55.594;12.986;2023-04-28T00:36:26;5.90;99.90
14723;DHT22;7452;55.594;12.986;2023-04-28T00:38:56;5.90;99.90
14723;DHT22;7452;55.594;12.986;2023-04-28T00:41:23;5.90;99.90
14723;DHT22;7452;55.594;12.986;2023-04-28T00:43:50;5.90;99.90
14723;DHT22;7452;55.594;12.986;2023-04-28T00:46:20;5.90;99.90
14723;DHT22;7452;55.594;12.986;2023-04-28T00:48:49;5.90;99.90
14723;DHT22;7452;55.594;12.986;2023-04-28T00:51:16;5.90;99.90
14723;DHT22;7452;55.594;12.986;2023-04-28T00:53:44;5.90;99.90
14723;DHT22;7452;55.594;12.986;2023-04-28T00:56:11;5.90;99.90
14723;DHT22;7452;55.594;12.986;2023-04-28T00:58:38;5.80;99.90
14723;DHT22;7452;55.594;12.986;2023-04-28T01:01:07;5.80;99.90
14723;DHT22;7452;55.594;12.986;2023-04-28T01:03:36;5.80;99.90
14723;DHT22;7452;55.594;12.986;2023-04-28T01:06:05;5.80;99.90
14723;DHT22;7452;55.594;12.986;2023-04-28T01:08:33;5.80;99.90
14723;DHT22;7452;55.594;12.986;2023-04-28T01:11:00;5.80;99.90
14723;DHT22;7452;55.594;12.986;2023-04-28T01:13:27;5.80;99.90
14723;DHT22;7452;55.594;12.986;2023-04-28T01:15:54;5.80;99.90
14723;DHT22;7452;55.594;12.986;2023-04-28T01:18:22;5.70;99.90
14723;DHT22;7452;55.594;12.986;2023-04-28T01:20:49;5.70;99.90
14723;DHT22;7452;55.594;12.986;2023-04-28T01:23:17;5.70;99.90
14723;DHT22;7452;55.594;12.986;2023-04-28T01:25:45;5.60;99.90
14723;DHT22;7452;55.594;12.986;2023-04-28T01:28:12;5.60;99.90
14723;DHT22;7452;55.594;12.986;2023-04-28T01:30:39;5.60;99.90
14723;DHT22;7452;55.594;12.986;2023-04-28T01:33:06;5.60;99.90
14723;DHT22;7452;55.594;12.986;2023-04-28T01:35:33;5.60;99.90
14723;DHT22;7452;55.594;12.986;2023-04-28T01:38:00;5.60;99.90
14723;DHT22;7452;55.594;12.986;2023-04-28T01:40:27;5.60;99.90
14723;DHT22;7452;55.594;12.986;2023-04-28T01:42:55;5.50;99.90
14723;DHT22;7452;55.594;12.986;2023-04-28T01:45:22;5.50;99.90
14723;DHT22;7452;55.594;12.986;2023-04-28T01:47:49;5.50;99.90
14723;DHT22;7452;55.594;12.986;2023-04-28T01:50:16;5.50;99.90
14723;DHT22;7452;55.594;12.986;2023-04-28T01:52:43;5.40;99.90
14723;DHT22;7452;55.594;12.986;2023-04-28T01:55:10;5.50;99.90
14723;DHT22;7452;55.594;12.986;2023-04-28T01:57:37;5.40;99.90
14723;DHT22;7452;55.594;12.986;2023-04-28T02:00:06;5.40;99.90
14723;DHT22;7452;55.594;12.986;2023-04-28T02:02:33;5.30;99.90
14723;DHT22;7452;55.594;12.986;2023-04-28T02:05:01;5.30;99.90
14723;DHT22;7452;55.594;12.986;2023-04-28T02:07:28;5.30;99.90
14723;DHT22;7452;55.594;12.986;2023-04-28T02:09:55;5.30;99.90
14723;DHT22;7452;55.594;12.986;2023-04-28T02:12:22;5.30;99.90
14723;DHT22;7452;55.594;12.986;2023-04-28T02:14:49;5.30;99.90
14723;DHT22;7452;55.594;12.986;2023-04-28T02:17:17;5.30;99.90
14723;DHT22;7452;55.594;12.986;2023-04-28T02:19:44;5.20;99.90
14723;DHT22;7452;55.594;12.986;2023-04-28T02:22:11;5.20;99.90
14723;DHT22;7452;55.594;12.986;2023-04-28T02:24:38;5.20;99.90
14723;DHT22;7452;55.594;12.986;2023-04-28T02:27:05;5.10;99.90
14723;DHT22;7452;55.594;12.986;2023-04-28T02:29:32;5.10;99.90
14723;DHT22;7452;55.594;12.986;2023-04-28T02:31:58;5.10;99.90
14723;DHT22;7452;55.594;12.986;2023-04-28T02:34:27;5.10;99.90
14723;DHT22;7452;55.594;12.986;2023-04-28T02:36:53;5.10;99.90
14723;DHT22;7452;55.594;12.986;2023-04-28T02:39:20;5.00;99.90
14723;DHT22;7452;55.594;12.986;2023-04-28T02:41:50;5.00;99.90
14723;DHT22;7452;55.594;12.986;2023-04-28T02:44:17;5.00;99.90
14723;DHT22;7452;55.594;12.986;2023-04-28T02:46:44;5.00;99.90
14723;DHT22;7452;55.594;12.986;2023-04-28T02:49:11;4.90;99.90
14723;DHT22;7452;55.594;12.986;2023-04-28T02:51:39;4.90;99.90
14723;DHT22;7452;55.594;12.986;2023-04-28T02:54:06;4.90;99.90
14723;DHT22;7452;55.594;12.986;2023-04-28T02:56:33;4.90;99.90
14723;DHT22;7452;55.594;12.986;2023-04-28T02:59:00;4.90;99.90
14723;DHT22;7452;55.594;12.986;2023-04-28T03:01:27;4.90;99.90
14723;DHT22;7452;55.594;12.986;2023-04-28T03:03:54;4.90;99.90
14723;DHT22;7452;55.594;12.986;2023-04-28T03:06:20;4.90;99.90
14723;DHT22;7452;55.594;12.986;2023-04-28T03:08:49;4.90;99.90
14723;DHT22;7452;55.594;12.986;2023-04-28T03:11:16;4.90;99.90
14723;DHT22;7452;55.594;12.986;2023-04-28T03:13:43;4.80;99.90
14723;DHT22;7452;55.594;12.986;2023-04-28T03:16:12;4.80;99.90
14723;DHT22;7452;55.594;12.986;2023-04-28T03:18:39;4.80;99.90
14723;DHT22;7452;55.594;12.986;2023-04-28T03:21:06;4.80;99.90
14723;DHT22;7452;55.594;12.986;2023-04-28T03:23:33;4.70;99.90
14723;DHT22;7452;55.594;12.986;2023-04-28T03:26:02;4.70;99.90
14723;DHT22;7452;55.594;12.986;2023-04-28T03:28:29;4.70;99.90
14723;DHT22;7452;55.594;12.986;2023-04-28T03:30:56;4.70;99.90
14723;DHT22;7452;55.594;12.986;2023-04-28T03:33:23;4.60;99.90
14723;DHT22;7452;55.594;12.986;2023-04-28T03:35:50;4.60;99.90
14723;DHT22;7452;55.594;12.986;2023-04-28T03:38:18;4.60;99.90
14723;DHT22;7452;55.594;12.986;2023-04-28T03:40:45;4.60;99.90
14723;DHT22;7452;55.594;12.986;2023-04-28T03:43:13;4.60;99.90
14723;DHT22;7452;55.594;12.986;2023-04-28T03:45:40;4.60;99.90
14723;DHT22;7452;55.594;12.986;2023-04-28T03:48:07;4.60;99.90
14723;DHT22;7452;55.594;12.986;2023-04-28T03:50:34;4.60;99.90
14723;DHT22;7452;55.594;12.986;2023-04-28T03:53:01;4.60;99.90
14723;DHT22;7452;55.594;12.986;2023-04-28T03:55:28;4.60;99.90
14723;DHT22;7452;55.594;12.986;2023-04-28T03:57:55;4.60;99.90
14723;DHT22;7452;55.594;12.986;2023-04-28T04:00:23;4.50;99.90
14723;DHT22;7452;55.594;12.986;2023-04-28T04:02:50;4.50;99.90
14723;DHT22;7452;55.594;12.986;2023-04-28T04:05:17;4.60;99.90
14723;DHT22;7452;55.594;12.986;2023-04-28T04:07:43;4.60;99.90
14723;DHT22;7452;55.594;12.986;2023-04-28T04:10:10;4.50;99.90
14723;DHT22;7452;55.594;12.986;2023-04-28T04:12:37;4.60;99.90
14723;DHT22;7452;55.594;12.986;2023-04-28T04:15:05;4.50;99.90
14723;DHT22;7452;55.594;12.986;2023-04-28T04:17:34;4.60;99.90
14723;DHT22;7452;55.594;12.986;2023-04-28T04:20:00;4.60;99.90
14723;DHT22;7452;55.594;12.986;2023-04-28T04:22:27;4.60;99.90
14723;DHT22;7452;55.594;12.986;2023-04-28T04:24:54;4.50;99.90
14723;DHT22;7452;55.594;12.986;2023-04-28T04:27:21;4.60;99.90
14723;DHT22;7452;55.594;12.986;2023-04-28T04:29:48;4.60;99.90
14723;DHT22;7452;55.594;12.986;2023-04-28T04:32:15;4.60;99.90
14723;DHT22;7452;55.594;12.986;2023-04-28T04:34:43;4.60;99.90
14723;DHT22;7452;55.594;12.986;2023-04-28T04:37:10;4.60;99.90
14723;DHT22;7452;55.594;12.986;2023-04-28T04:39:37;4.80;99.90
14723;DHT22;7452;55.594;12.986;2023-04-28T04:42:04;4.80;99.90
14723;DHT22;7452;55.594;12.986;2023-04-28T04:44:31;4.90;99.90
14723;DHT22;7452;55.594;12.986;2023-04-28T04:46:58;4.90;99.90
14723;DHT22;7452;55.594;12.986;2023-04-28T04:49:25;5.00;99.90
14723;DHT22;7452;55.594;12.986;2023-04-28T04:51:53;5.10;99.90
14723;DHT22;7452;55.594;12.986;2023-04-28T04:54:20;5.10;99.90
14723;DHT22;7452;55.594;12.986;2023-04-28T04:56:47;5.20;99.90
14723;DHT22;7452;55.594;12.986;2023-04-28T04:59:14;5.20;99.90
14723;DHT22;7452;55.594;12.986;2023-04-28T05:01:40;5.30;99.90
14723;DHT22;7452;55.594;12.986;2023-04-28T05:04:07;5.30;99.90
14723;DHT22;7452;55.594;12.986;2023-04-28T05:06:34;5.30;99.90
14723;DHT22;7452;55.594;12.986;2023-04-28T05:09:03;5.30;99.90
14723;DHT22;7452;55.594;12.986;2023-04-28T05:11:29;5.30;99.90
14723;DHT22;7452;55.594;12.986;2023-04-28T05:13:56;5.30;99.90
14723;DHT22;7452;55.594;12.986;2023-04-28T05:16:23;5.40;99.90
14723;DHT22;7452;55.594;12.986;2023-04-28T05:18:50;5.40;99.90
14723;DHT22;7452;55.594;12.986;2023-04-28T05:21:17;5.40;99.90
14723;DHT22;7452;55.594;12.986;2023-04-28T05:23:44;5.50;99.90
14723;DHT22;7452;55.594;12.986;2023-04-28T05:26:12;5.60;99.90
14723;DHT22;7452;55.594;12.986;2023-04-28T05:28:40;5.60;99.90
14723;DHT22;7452;55.594;12.986;2023-04-28T05:31:07;5.70;99.90
14723;DHT22;7452;55.594;12.986;2023-04-28T05:33:34;5.70;99.90
14723;DHT22;7452;55.594;12.986;2023-04-28T05:36:01;5.80;99.90
14723;DHT22;7452;55.594;12.986;2023-04-28T05:38:28;5.90;99.90
14723;DHT22;7452;55.594;12.986;2023-04-28T05:40:56;5.90;99.90
14723;DHT22;7452;55.594;12.986;2023-04-28T05:43:24;6.00;99.90
14723;DHT22;7452;55.594;12.986;2023-04-28T05:45:51;6.00;99.90
14723;DHT22;7452;55.594;12.986;2023-04-28T05:48:18;6.10;99.90
14723;DHT22;7452;55.594;12.986;2023-04-28T05:50:45;6.10;99.90
14723;DHT22;7452;55.594;12.986;2023-04-28T05:53:12;6.20;99.90
14723;DHT22;7452;55.594;12.986;2023-04-28T05:55:39;6.30;99.90
14723;DHT22;7452;55.594;12.986;2023-04-28T05:58:06;6.40;99.90
14723;DHT22;7452;55.594;12.986;2023-04-28T06:00:35;6.50;99.90
14723;DHT22;7452;55.594;12.986;2023-04-28T06:03:02;6.60;99.90
14723;DHT22;7452;55.594;12.986;2023-04-28T06:05:29;6.60;99.90
14723;DHT22;7452;55.594;12.986;2023-04-28T06:07:56;6.70;99.90
14723;DHT22;7452;55.594;12.986;2023-04-28T06:10:25;6.70;99.90
14723;DHT22;7452;55.594;12.986;2023-04-28T06:12:52;6.80;99.90
14723;DHT22;7452;55.594;12.986;2023-04-28T06:15:18;6.90;99.90
14723;DHT22;7452;55.594;12.986;2023-04-28T06:17:47;7.00;99.90
14723;DHT22;7452;55.594;12.986;2023-04-28T06:20:13;7.20;99.90
14723;DHT22;7452;55.594;12.986;2023-04-28T06:22:41;7.30;99.90
14723;DHT22;7452;55.594;12.986;2023-04-28T06:25:08;7.50;99.90
14723;DHT22;7452;55.594;12.986;2023-04-28T06:27:35;7.60;99.90
14723;DHT22;7452;55.594;12.986;2023-04-28T06:30:02;7.70;99.90
14723;DHT22;7452;55.594;12.986;2023-04-28T06:32:29;7.90;99.90
14723;DHT22;7452;55.594;12.986;2023-04-28T06:34:58;8.00;99.90
14723;DHT22;7452;55.594;12.986;2023-04-28T06:37:25;8.10;99.90
14723;DHT22;7452;55.594;12.986;2023-04-28T06:39:52;8.20;99.90
14723;DHT22;7452;55.594;12.986;2023-04-28T06:42:19;8.30;99.90
14723;DHT22;7452;55.594;12.986;2023-04-28T06:44:46;8.30;99.90
14723;DHT22;7452;55.594;12.986;2023-04-28T06:47:12;8.30;99.90
14723;DHT22;7452;55.594;12.986;2023-04-28T06:49:39;8.40;99.90
14723;DHT22;7452;55.594;12.986;2023-04-28T06:52:09;8.50;99.90
14723;DHT22;7452;55.594;12.986;2023-04-28T06:54:36;8.60;99.90
14723;DHT22;7452;55.594;12.986;2023-04-28T06:57:03;8.70;99.90
14723;DHT22;7452;55.594;12.986;2023-04-28T06:59:30;8.90;99.90
14723;DHT22;7452;55.594;12.986;2023-04-28T07:01:57;9.00;99.90
14723;DHT22;7452;55.594;12.986;2023-04-28T07:04:24;9.20;99.90
14723;DHT22;7452;55.594;12.986;2023-04-28T07:06:51;9.30;99.90
14723;DHT22;7452;55.594;12.986;2023-04-28T07:09:20;9.40;99.90
14723;DHT22;7452;55.594;12.986;2023-04-28T07:11:46;9.60;99.90
14723;DHT22;7452;55.594;12.986;2023-04-28T07:14:13;9.80;99.90
14723;DHT22;7452;55.594;12.986;2023-04-28T07:16:40;9.80;99.90
14723;DHT22;7452;55.594;12.986;2023-04-28T07:19:07;9.90;99.90
14723;DHT22;7452;55.594;12.986;2023-04-28T07:21:34;10.00;99.90
14723;DHT22;7452;55.594;12.986;2023-04-28T07:24:01;10.00;99.90
14723;DHT22;7452;55.594;12.986;2023-04-28T07:26:29;10.30;99.90
14723;DHT22;7452;55.594;12.986;2023-04-28T07:28:56;10.40;99.90
14723;DHT22;7452;55.594;12.986;2023-04-28T07:31:23;10.60;99.90
14723;DHT22;7452;55.594;12.986;2023-04-28T07:33:50;10.60;99.90
14723;DHT22;7452;55.594;12.986;2023-04-28T07:36:17;10.70;99.90
14723;DHT22;7452;55.594;12.986;2023-04-28T07:38:44;10.80;99.90
14723;DHT22;7452;55.594;12.986;2023-04-28T07:41:11;10.80;99.90
14723;DHT22;7452;55.594;12.986;2023-04-28T07:43:40;10.70;99.90
14723;DHT22;7452;55.594;12.986;2023-04-28T07:46:07;10.70;99.90
14723;DHT22;7452;55.594;12.986;2023-04-28T07:48:34;10.70;99.90
14723;DHT22;7452;55.594;12.986;2023-04-28T07:51:01;10.80;99.90
14723;DHT22;7452;55.594;12.986;2023-04-28T07:53:28;10.80;99.90
14723;DHT22;7452;55.594;12.986;2023-04-28T07:55:55;10.90;99.90
14723;DHT22;7452;55.594;12.986;2023-04-28T07:58:21;11.00;99.90
14723;DHT22;7452;55.594;12.986;2023-04-28T08:00:50;11.00;99.90
14723;DHT22;7452;55.594;12.986;2023-04-28T08:03:17;11.10;99.90
14723;DHT22;7452;55.594;12.986;2023-04-28T08:05:43;11.10;99.90
14723;DHT22;7452;55.594;12.986;2023-04-28T08:08:10;11.00;99.90
14723;DHT22;7452;55.594;12.986;2023-04-28T08:10:37;11.00;99.90
14723;DHT22;7452;55.594;12.986;2023-04-28T08:13:06;11.00;99.90
14723;DHT22;7452;55.594;12.986;2023-04-28T08:15:33;11.20;99.90
14723;DHT22;7452;55.594;12.986;2023-04-28T08:18:02;11.40;99.90
14723;DHT22;7452;55.594;12.986;2023-04-28T08:20:29;11.60;99.90
14723;DHT22;7452;55.594;12.986;2023-04-28T08:22:57;11.70;99.90
14723;DHT22;7452;55.594;12.986;2023-04-28T08:25:24;11.80;99.90
14723;DHT22;7452;55.594;12.986;2023-04-28T08:27:51;11.90;99.90
14723;DHT22;7452;55.594;12.986;2023-04-28T08:30:18;11.90;99.90
14723;DHT22;7452;55.594;12.986;2023-04-28T08:32:45;12.00;99.90
14723;DHT22;7452;55.594;12.986;2023-04-28T08:35:14;12.00;99.90
14723;DHT22;7452;55.594;12.986;2023-04-28T08:37:41;11.90;99.90
14723;DHT22;7452;55.594;12.986;2023-04-28T08:40:09;11.90;99.90
14723;DHT22;7452;55.594;12.986;2023-04-28T08:42:36;11.90;99.90
14723;DHT22;7452;55.594;12.986;2023-04-28T08:45:05;12.10;99.90
14723;DHT22;7452;55.594;12.986;2023-04-28T08:47:34;12.20;99.90
14723;DHT22;7452;55.594;12.986;2023-04-28T08:50:02;12.00;99.90
14723;DHT22;7452;55.594;12.986;2023-04-28T08:52:32;12.00;99.90
14723;DHT22;7452;55.594;12.986;2023-04-28T08:55:00;11.70;99.90
14723;DHT22;7452;55.594;12.986;2023-04-28T08:57:31;11.50;99.90
14723;DHT22;7452;55.594;12.986;2023-04-28T09:00:00;11.10;99.90
14723;DHT22;7452;55.594;12.986;2023-04-28T09:02:27;11.00;99.90
14723;DHT22;7452;55.594;12.986;2023-04-28T09:04:54;10.90;99.90
14723;DHT22;7452;55.594;12.986;2023-04-28T09:07:22;11.10;99.90
14723;DHT22;7452;55.594;12.986;2023-04-28T09:10:00;11.40;99.90
14723;DHT22;7452;55.594;12.986;2023-04-28T09:12:37;11.60;99.90
14723;DHT22;7452;55.594;12.986;2023-04-28T09:15:04;11.80;99.90
14723;DHT22;7452;55.594;12.986;2023-04-28T09:17:50;12.20;99.90
14723;DHT22;7452;55.594;12.986;2023-04-28T09:20:21;12.40;99.90
14723;DHT22;7452;55.594;12.986;2023-04-28T09:22:49;12.40;99.90
14723;DHT22;7452;55.594;12.986;2023-04-28T09:25:17;12.50;99.90
14723;DHT22;7452;55.594;12.986;2023-04-28T09:27:44;12.80;99.90
14723;DHT22;7452;55.594;12.986;2023-04-28T09:30:11;13.10;99.90
14723;DHT22;7452;55.594;12.986;2023-04-28T09:32:38;12.80;99.90
14723;DHT22;7452;55.594;12.986;2023-04-28T09:35:07;12.50;99.90
14723;DHT22;7452;55.594;12.986;2023-04-28T09:37:34;12.60;99.90
14723;DHT22;7452;55.594;12.986;2023-04-28T09:40:06;12.70;99.90
14723;DHT22;7452;55.594;12.986;2023-04-28T09:42:35;12.60;99.90
14723;DHT22;7452;55.594;12.986;2023-04-28T09:45:03;12.80;99.90
14723;DHT22;7452;55.594;12.986;2023-04-28T09:47:31;13.10;99.90
14723;DHT22;7452;55.594;12.986;2023-04-28T09:50:01;13.20;99.90
14723;DHT22;7452;55.594;12.986;2023-04-28T09:52:30;13.40;99.90
14723;DHT22;7452;55.594;12.986;2023-04-28T09:55:01;13.00;99.90
14723;DHT22;7452;55.594;12.986;2023-04-28T09:57:29;13.00;99.90
14723;DHT22;7452;55.594;12.986;2023-04-28T09:59:57;13.10;99.90
14723;DHT22;7452;55.594;12.986;2023-04-28T10:02:25;13.20;99.90
14723;DHT22;7452;55.594;12.986;2023-04-28T10:04:52;13.10;99.90
14723;DHT22;7452;55.594;12.986;2023-04-28T10:07:20;13.00;99.90
14723;DHT22;7452;55.594;12.986;2023-04-28T10:09:49;13.20;99.90
14723;DHT22;7452;55.594;12.986;2023-04-28T10:12:16;13.60;99.90
14723;DHT22;7452;55.594;12.986;2023-04-28T10:14:44;13.90;99.90
14723;DHT22;7452;55.594;12.986;2023-04-28T10:17:12;14.50;99.90
14723;DHT22;7452;55.594;12.986;2023-04-28T10:19:40;14.90;99.90
14723;DHT22;7452;55.594;12.986;2023-04-28T10:22:28;15.70;99.90
14723;DHT22;7452;55.594;12.986;2023-04-28T10:25:18;16.20;99.90
14723;DHT22;7452;55.594;12.986;2023-04-28T10:27:48;16.50;99.90
14723;DHT22;7452;55.594;12.986;2023-04-28T10:30:17;16.80;99.90
14723;DHT22;7452;55.594;12.986;2023-04-28T10:32:44;16.80;99.90
14723;DHT22;7452;55.594;12.986;2023-04-28T10:35:40;16.80;99.90
14723;DHT22;7452;55.594;12.986;2023-04-28T10:38:09;17.10;99.90
14723;DHT22;7452;55.594;12.986;2023-04-28T10:40:39;17.60;99.90
14723;DHT22;7452;55.594;12.986;2023-04-28T10:43:10;17.90;99.90
14723;DHT22;7452;55.594;12.986;2023-04-28T10:46:03;18.10;99.90
14723;DHT22;7452;55.594;12.986;2023-04-28T10:49:03;18.70;99.90
14723;DHT22;7452;55.594;12.986;2023-04-28T10:51:33;18.40;99.90
14723;DHT22;7452;55.594;12.986;2023-04-28T10:54:21;18.60;99.90
14723;DHT22;7452;55.594;12.986;2023-04-28T10:57:15;18.00;99.90
14723;DHT22;7452;55.594;12.986;2023-04-28T10:59:42;19.50;99.90
14723;DHT22;7452;55.594;12.986;2023-04-28T11:02:35;20.70;99.90
14723;DHT22;7452;55.594;12.986;2023-04-28T11:05:16;21.60;99.90
14723;DHT22;7452;55.594;12.986;2023-04-28T11:11:10;22.20;99.90
14723;DHT22;7452;55.594;12.986;2023-04-28T11:13:38;22.80;99.90
14723;DHT22;7452;55.594;12.986;2023-04-28T11:16:06;23.00;99.90
14723;DHT22;7452;55.594;12.986;2023-04-28T11:21:30;21.30;99.90
14723;DHT22;7452;55.594;12.986;2023-04-28T11:23:58;21.20;99.90
14723;DHT22;7452;55.594;12.986;2023-04-28T11:26:26;22.00;99.90
14723;DHT22;7452;55.594;12.986;2023-04-28T11:28:56;22.70;99.90
14723;DHT22;7452;55.594;12.986;2023-04-28T11:31:24;22.40;99.80
14723;DHT22;7452;55.594;12.986;2023-04-28T11:33:53;22.50;99.40
14723;DHT22;7452;55.594;12.986;2023-04-28T11:36:30;22.00;99.30
14723;DHT22;7452;55.594;12.986;2023-04-28T11:38:59;22.20;99.90
14723;DHT22;7452;55.594;12.986;2023-04-28T11:41:26;22.60;99.90
14723;DHT22;7452;55.594;12.986;2023-04-28T11:43:54;22.50;98.50
14723;DHT22;7452;55.594;12.986;2023-04-28T11:46:22;22.20;99.90
14723;DHT22;7452;55.594;12.986;2023-04-28T11:49:00;22.20;97.40
14723;DHT22;7452;55.594;12.986;2023-04-28T11:51:35;22.60;97.40
14723;DHT22;7452;55.594;12.986;2023-04-28T11:54:03;23.00;97.50
14723;DHT22;7452;55.594;12.986;2023-04-28T11:56:37;22.40;98.40
14723;DHT22;7452;55.594;12.986;2023-04-28T11:59:06;23.20;99.10
14723;DHT22;7452;55.594;12.986;2023-04-28T12:01:35;23.40;96.00
14723;DHT22;7452;55.594;12.986;2023-04-28T12:04:09;23.00;97.20
14723;DHT22;7452;55.594;12.986;2023-04-28T12:06:37;22.10;96.30
14723;DHT22;7452;55.594;12.986;2023-04-28T12:09:14;22.00;99.90
14723;DHT22;7452;55.594;12.986;2023-04-28T12:11:51;22.80;99.90
14723;DHT22;7452;55.594;12.986;2023-04-28T12:14:20;24.00;98.50
14723;DHT22;7452;55.594;12.986;2023-04-28T12:16:47;25.00;99.90
14723;DHT22;7452;55.594;12.986;2023-04-28T12:19:15;25.30;97.00
14723;DHT22;7452;55.594;12.986;2023-04-28T12:21:57;25.40;95.20
14723;DHT22;7452;55.594;12.986;2023-04-28T12:24:24;25.40;96.70
14723;DHT22;7452;55.594;12.986;2023-04-28T12:26:51;25.20;90.50
14723;DHT22;7452;55.594;12.986;2023-04-28T12:29:42;25.10;92.80
14723;DHT22;7452;55.594;12.986;2023-04-28T12:32:10;25.20;90.90
14723;DHT22;7452;55.594;12.986;2023-04-28T12:34:38;25.20;95.50
14723;DHT22;7452;55.594;12.986;2023-04-28T12:37:06;25.40;88.50
14723;DHT22;7452;55.594;12.986;2023-04-28T12:39:34;25.40;86.70
14723;DHT22;7452;55.594;12.986;2023-04-28T12:42:02;24.30;86.50
14723;DHT22;7452;55.594;12.986;2023-04-28T12:44:31;24.10;94.50
14723;DHT22;7452;55.594;12.986;2023-04-28T12:47:02;23.90;89.30
14723;DHT22;7452;55.594;12.986;2023-04-28T12:49:29;24.10;82.70
14723;DHT22;7452;55.594;12.986;2023-04-28T12:51:56;24.30;93.30
14723;DHT22;7452;55.594;12.986;2023-04-28T12:54:23;24.20;90.30
14723;DHT22;7452;55.594;12.986;2023-04-28T12:56:50;24.20;88.70
14723;DHT22;7452;55.594;12.986;2023-04-28T12:59:17;23.60;85.30
14723;DHT22;7452;55.594;12.986;2023-04-28T13:01:44;23.40;81.00
14723;DHT22;7452;55.594;12.986;2023-04-28T13:04:12;22.70;81.30
14723;DHT22;7452;55.594;12.986;2023-04-28T13:06:39;22.10;86.50
14723;DHT22;7452;55.594;12.986;2023-04-28T13:09:09;21.80;84.70
14723;DHT22;7452;55.594;12.986;2023-04-28T13:11:36;22.10;90.10
14723;DHT22;7452;55.594;12.986;2023-04-28T13:14:03;22.60;89.90
14723;DHT22;7452;55.594;12.986;2023-04-28T13:16:30;22.70;86.60
14723;DHT22;7452;55.594;12.986;2023-04-28T13:18:58;22.80;86.90
14723;DHT22;7452;55.594;12.986;2023-04-28T13:21:26;22.70;90.70
14723;DHT22;7452;55.594;12.986;2023-04-28T13:23:54;23.00;89.50
14723;DHT22;7452;55.594;12.986;2023-04-28T13:26:21;22.80;86.10
14723;DHT22;7452;55.594;12.986;2023-04-28T13:28:49;21.80;84.30
14723;DHT22;7452;55.594;12.986;2023-04-28T13:31:16;20.60;87.20
14723;DHT22;7452;55.594;12.986;2023-04-28T13:33:43;20.20;91.90
14723;DHT22;7452;55.594;12.986;2023-04-28T13:36:10;20.20;91.60
14723;DHT22;7452;55.594;12.986;2023-04-28T13:38:39;19.50;87.30
14723;DHT22;7452;55.594;12.986;2023-04-28T13:41:06;19.50;91.00
14723;DHT22;7452;55.594;12.986;2023-04-28T13:43:33;19.80;91.30
14723;DHT22;7452;55.594;12.986;2023-04-28T13:46:00;20.10;91.10
14723;DHT22;7452;55.594;12.986;2023-04-28T13:48:32;20.20;90.80
14723;DHT22;7452;55.594;12.986;2023-04-28T13:50:59;20.50;92.80
14723;DHT22;7452;55.594;12.986;2023-04-28T13:53:26;20.20;91.50
14723;DHT22;7452;55.594;12.986;2023-04-28T13:55:55;20.30;90.90
14723;DHT22;7452;55.594;12.986;2023-04-28T13:58:23;20.50;92.10
14723;DHT22;7452;55.594;12.986;2023-04-28T14:00:50;20.60;90.00
14723;DHT22;7452;55.594;12.986;2023-04-28T14:03:17;20.40;91.90
14723;DHT22;7452;55.594;12.986;2023-04-28T14:05:44;20.10;91.70
14723;DHT22;7452;55.594;12.986;2023-04-28T14:08:11;19.80;91.50
14723;DHT22;7452;55.594;12.986;2023-04-28T14:10:38;19.70;92.90
14723;DHT22;7452;55.594;12.986;2023-04-28T14:13:06;20.30;91.70
14723;DHT22;7452;55.594;12.986;2023-04-28T14:15:33;20.70;89.70
14723;DHT22;7452;55.594;12.986;2023-04-28T14:18:00;21.00;91.10
14723;DHT22;7452;55.594;12.986;2023-04-28T14:20:27;21.20;92.80
14723;DHT22;7452;55.594;12.986;2023-04-28T14:22:54;21.10;89.30
14723;DHT22;7452;55.594;12.986;2023-04-28T14:25:22;21.10;90.20
14723;DHT22;7452;55.594;12.986;2023-04-28T14:27:50;20.90;91.40
14723;DHT22;7452;55.594;12.986;2023-04-28T14:30:18;21.00;93.50
14723;DHT22;7452;55.594;12.986;2023-04-28T14:32:46;21.00;91.40
14723;DHT22;7452;55.594;12.986;2023-04-28T14:35:13;21.20;91.40
14723;DHT22;7452;55.594;12.986;2023-04-28T14:37:41;20.90;90.20
14723;DHT22;7452;55.594;12.986;2023-04-28T14:40:09;20.50;89.80
14723;DHT22;7452;55.594;12.986;2023-04-28T14:42:36;20.10;91.00
14723;DHT22;7452;55.594;12.986;2023-04-28T14:45:03;19.90;90.30
14723;DHT22;7452;55.594;12.986;2023-04-28T14:47:33;19.80;92.70
14723;DHT22;7452;55.594;12.986;2023-04-28T14:49:59;19.50;92.00
14723;DHT22;7452;55.594;12.986;2023-04-28T14:52:26;19.10;91.70
14723;DHT22;7452;55.594;12.986;2023-04-28T14:54:55;18.70;92.20
14723;DHT22;7452;55.594;12.986;2023-04-28T14:57:23;18.40;93.70
14723;DHT22;7452;55.594;12.986;2023-04-28T14:59:50;18.20;93.20
14723;DHT22;7452;55.594;12.986;2023-04-28T15:02:17;17.90;93.40
14723;DHT22;7452;55.594;12.986;2023-04-28T15:04:47;17.40;93.50
14723;DHT22;7452;55.594;12.986;2023-04-28T15:07:14;17.00;94.10
14723;DHT22;7452;55.594;12.986;2023-04-28T15:09:41;16.70;94.90
14723;DHT22;7452;55.594;12.986;2023-04-28T15:12:08;16.80;96.20
14723;DHT22;7452;55.594;12.986;2023-04-28T15:14:35;16.90;95.10
14723;DHT22;7452;55.594;12.986;2023-04-28T15:17:02;16.90;95.10
14723;DHT22;7452;55.594;12.986;2023-04-28T15:19:29;16.60;94.10
14723;DHT22;7452;55.594;12.986;2023-04-28T15:21:58;16.60;95.00
14723;DHT22;7452;55.594;12.986;2023-04-28T15:24:25;16.50;97.40
14723;DHT22;7452;55.594;12.986;2023-04-28T15:26:52;16.50;97.10
14723;DHT22;7452;55.594;12.986;2023-04-28T15:29:19;16.40;97.90
14723;DHT22;7452;55.594;12.986;2023-04-28T15:31:47;16.60;96.20
14723;DHT22;7452;55.594;12.986;2023-04-28T15:34:14;16.80;97.40
14723;DHT22;7452;55.594;12.986;2023-04-28T15:36:42;17.00;96.80
14723;DHT22;7452;55.594;12.986;2023-04-28T15:39:10;16.80;97.90
14723;DHT22;7452;55.594;12.986;2023-04-28T15:41:37;16.60;96.60
14723;DHT22;7452;55.594;12.986;2023-04-28T15:44:04;16.50;97.50
14723;DHT22;7452;55.594;12.986;2023-04-28T15:46:32;16.30;95.70
14723;DHT22;7452;55.594;12.986;2023-04-28T15:48:58;16.20;96.60
14723;DHT22;7452;55.594;12.986;2023-04-28T15:51:26;16.10;97.00